Aviation Digital Data Service (ADDS)

Output produced by METARs form (0205 UTC 26 April 2017)
found at http://www.aviationweather.gov/adds/metars/
 
KLNS 260153Z 08014KT 10SM OVC010 14/13 A2979 RMK AO2 SLP088 T01390133
KLNS 260126Z 2601/2624 07011KT P6SM OVC012 
     FM260200 07011KT 5SM -DZ BR OVC007 
     FM260300 03005KT 4SM -DZ BR OVC005 
     FM261600 VRB03KT P6SM OVC015 
     FM262100 VRB03KT P6SM BKN035